createdAt,value
2023-01-23T00:00:15.435Z,-2.3
2023-01-23T00:02:21.672Z,-2.3
2023-01-23T00:04:20.932Z,-2.3
2023-01-23T00:06:19.770Z,-2.3
2023-01-23T00:08:21.444Z,-2.3
2023-01-23T00:10:15.719Z,-2.3
2023-01-23T00:12:21.380Z,-2.3
2023-01-23T00:16:21.463Z,-2.2
2023-01-23T00:18:17.704Z,-2.1
2023-01-23T00:20:21.423Z,-2.1
2023-01-23T00:24:18.166Z,-2
2023-01-23T00:30:20.838Z,-2
2023-01-23T00:32:21.463Z,-1.9
2023-01-23T00:34:21.416Z,-2
2023-01-23T00:36:15.450Z,-2
2023-01-23T00:38:21.407Z,-2
2023-01-23T00:40:22.567Z,-2
2023-01-23T00:42:18.171Z,-1.9
2023-01-23T00:44:21.574Z,-1.9
2023-01-23T00:46:21.385Z,-2
2023-01-23T00:48:17.245Z,-1.9
2023-01-23T00:50:21.591Z,-1.9
2023-01-23T00:54:18.126Z,-1.8
2023-01-23T00:56:21.445Z,-1.8
2023-01-23T01:00:19.299Z,-1.8
2023-01-23T01:02:21.510Z,-1.7
2023-01-23T01:04:21.384Z,-1.8
2023-01-23T01:06:17.796Z,-1.7
2023-01-23T01:10:21.343Z,-1.7
2023-01-23T01:12:19.118Z,-1.7
2023-01-23T01:14:21.275Z,-1.7
2023-01-23T01:16:21.427Z,-1.8
2023-01-23T01:18:15.529Z,-1.9
2023-01-23T01:22:21.432Z,-1.8
2023-01-23T01:24:21.166Z,-1.7
2023-01-23T01:26:21.189Z,-1.8
2023-01-23T01:28:21.462Z,-1.7
2023-01-23T01:30:15.425Z,-1.7
2023-01-23T01:32:19.378Z,-1.7
2023-01-23T01:36:19.153Z,-1.6
2023-01-23T01:38:19.855Z,-1.8
2023-01-23T01:40:22.002Z,-1.7
2023-01-23T01:42:18.925Z,-1.7
2023-01-23T01:44:21.635Z,-1.7
2023-01-23T01:48:17.287Z,-1.7
2023-01-23T01:50:21.833Z,-1.6
2023-01-23T01:54:19.216Z,-1.7
2023-01-23T02:00:15.525Z,-1.7
2023-01-23T02:02:21.108Z,-1.7
2023-01-23T02:04:22.051Z,-1.8
2023-01-23T02:06:18.638Z,-1.8
2023-01-23T02:08:21.397Z,-1.9
2023-01-23T02:10:21.606Z,-1.9
2023-01-23T02:12:20.798Z,-1.9
2023-01-23T02:16:21.551Z,-1.9
2023-01-23T02:18:21.134Z,-1.9
2023-01-23T02:20:21.855Z,-1.9
2023-01-23T02:24:17.784Z,-1.9
2023-01-23T02:28:21.188Z,-1.9
2023-01-23T02:30:15.465Z,-1.9
2023-01-23T02:36:16.880Z,-1.7
2023-01-23T02:40:21.816Z,-1.9
2023-01-23T02:42:20.305Z,-1.9
2023-01-23T02:44:21.357Z,-1.9
2023-01-23T02:46:21.380Z,-1.9
2023-01-23T02:48:18.286Z,-1.9
2023-01-23T02:50:21.207Z,-1.9
2023-01-23T02:52:21.466Z,-1.9
2023-01-23T02:54:16.831Z,-1.9
2023-01-23T03:00:21.296Z,-1.9
2023-01-23T03:04:21.786Z,-2
2023-01-23T03:06:17.938Z,-2
2023-01-23T03:10:21.676Z,-2.2
2023-01-23T03:12:15.462Z,-2.2
2023-01-23T03:14:21.019Z,-2.2
2023-01-23T03:16:21.522Z,-2.2
2023-01-23T03:18:19.129Z,-2.3
2023-01-23T03:20:21.629Z,-2.3
2023-01-23T03:22:18.735Z,-2.3
2023-01-23T03:24:20.755Z,-2.3
2023-01-23T03:26:18.518Z,-2.2
2023-01-23T03:28:20.358Z,-2.2
2023-01-23T03:30:17.121Z,-2.2
2023-01-23T03:32:21.453Z,-2.2
2023-01-23T03:36:17.272Z,-2.2
2023-01-23T03:40:21.862Z,-2.3
2023-01-23T03:42:20.807Z,-2.3
2023-01-23T03:44:21.622Z,-2.3
2023-01-23T03:48:20.161Z,-2.2
2023-01-23T03:54:16.176Z,-2.3
2023-01-23T03:56:21.455Z,-2.3
2023-01-23T03:58:21.458Z,-2.4
2023-01-23T04:00:17.048Z,-2.4
2023-01-23T04:04:21.261Z,-2.3
2023-01-23T04:06:15.543Z,-2.3
2023-01-23T04:08:21.335Z,-2.3
2023-01-23T04:10:21.926Z,-2.2
2023-01-23T04:12:16.559Z,-2.2
2023-01-23T04:18:16.557Z,-2.3
2023-01-23T04:24:15.494Z,-2.3
2023-01-23T04:26:20.851Z,-2.3
2023-01-23T04:28:21.346Z,-2.2
2023-01-23T04:30:17.376Z,-2.2
2023-01-23T04:32:19.933Z,-2.2
2023-01-23T04:34:21.665Z,-2.2
2023-01-23T04:36:20.231Z,-2.1
2023-01-23T04:40:22.007Z,-2.1
2023-01-23T04:42:16.525Z,-2.1
2023-01-23T04:44:21.075Z,-2.2
2023-01-23T04:48:17.845Z,-2
2023-01-23T04:52:21.395Z,-2
2023-01-23T04:54:18.293Z,-2.1
2023-01-23T04:56:21.760Z,-2.1
2023-01-23T05:00:19.412Z,-2.2
2023-01-23T05:02:19.368Z,-2.1
2023-01-23T05:06:20.941Z,-2.1
2023-01-23T05:08:21.531Z,-2
2023-01-23T05:10:21.748Z,-2
2023-01-23T05:12:15.548Z,-2
2023-01-23T05:16:21.597Z,-2
2023-01-23T05:18:15.463Z,-2
2023-01-23T05:20:21.462Z,-2
2023-01-23T05:24:15.454Z,-2
2023-01-23T05:28:20.919Z,-2.1
2023-01-23T05:30:18.658Z,-2.1
2023-01-23T05:32:21.169Z,-2
2023-01-23T05:34:19.845Z,-2
2023-01-23T05:36:18.507Z,-1.9
2023-01-23T05:38:21.110Z,-1.9
2023-01-23T05:42:18.394Z,-1.9
2023-01-23T05:46:20.133Z,-1.9
2023-01-23T05:48:18.285Z,-1.9
2023-01-23T05:50:21.004Z,-1.9
2023-01-23T05:52:21.029Z,-2
2023-01-23T05:54:16.928Z,-2
2023-01-23T06:00:15.959Z,-1.9
2023-01-23T06:02:20.022Z,-1.9
2023-01-23T06:06:20.106Z,-2
2023-01-23T06:10:20.186Z,-2
2023-01-23T06:12:17.664Z,-2
2023-01-23T06:14:20.895Z,-2
2023-01-23T06:18:20.867Z,-2
2023-01-23T06:20:21.688Z,-2
2023-01-23T06:24:18.888Z,-2
2023-01-23T06:26:21.076Z,-2
2023-01-23T06:30:15.505Z,-1.9
2023-01-23T06:32:21.100Z,-1.9
2023-01-23T06:34:18.719Z,-1.9
2023-01-23T06:36:18.888Z,-1.9
2023-01-23T06:38:21.001Z,-1.9
2023-01-23T06:42:18.552Z,-1.9
2023-01-23T06:46:21.184Z,-1.8
2023-01-23T06:48:17.861Z,-1.8
2023-01-23T06:50:20.341Z,-1.8
2023-01-23T06:52:20.952Z,-1.8
2023-01-23T06:54:19.649Z,-1.8
2023-01-23T06:56:21.185Z,-1.7
2023-01-23T06:58:21.451Z,-1.7
2023-01-23T07:00:16.621Z,-1.8
2023-01-23T07:04:21.045Z,-1.7
2023-01-23T07:06:19.292Z,-1.7
2023-01-23T07:08:21.107Z,-1.7
2023-01-23T07:10:20.817Z,-1.7
2023-01-23T07:12:21.461Z,-1.6
2023-01-23T07:14:21.181Z,-1.6
2023-01-23T07:18:18.906Z,-1.6
2023-01-23T07:20:20.383Z,-1.6
2023-01-23T07:22:20.069Z,-1.6
2023-01-23T07:24:18.225Z,-1.6
2023-01-23T07:26:15.081Z,-1.6
2023-01-23T07:28:19.710Z,-1.6
2023-01-23T07:30:14.811Z,-1.6
2023-01-23T07:32:17.666Z,-1.6
2023-01-23T07:34:15.578Z,-1.5
2023-01-23T07:36:14.940Z,-1.4
2023-01-23T07:38:18.102Z,-1.4
2023-01-23T07:40:15.135Z,-1.4
2023-01-23T07:44:17.434Z,-1.4
2023-01-23T07:46:18.079Z,-1.3
2023-01-23T07:48:14.898Z,-1.3
2023-01-23T07:50:15.322Z,-1.2
2023-01-23T07:52:16.352Z,-1.3
2023-01-23T07:54:15.283Z,-1.4
2023-01-23T07:56:18.195Z,-1.3
2023-01-23T07:58:15.583Z,-1.4
2023-01-23T08:00:14.881Z,-1.4
2023-01-23T08:02:15.147Z,-1.4
2023-01-23T08:04:17.765Z,-1.3
2023-01-23T08:06:14.925Z,-1.3
2023-01-23T08:08:15.215Z,-1.3
2023-01-23T08:12:17.483Z,-1.2
2023-01-23T08:14:15.296Z,-1.2
2023-01-23T08:16:15.189Z,-1.2
2023-01-23T08:18:14.954Z,-1.1
2023-01-23T08:20:15.371Z,-1.1
2023-01-23T08:22:15.136Z,-1.1
2023-01-23T08:24:14.924Z,-0.9
2023-01-23T08:26:15.690Z,-0.9
2023-01-23T08:32:15.251Z,-0.8
2023-01-23T08:34:15.153Z,-0.8
2023-01-23T08:36:14.870Z,-0.9
2023-01-23T08:38:15.227Z,-1
2023-01-23T08:40:22.346Z,-0.8
2023-01-23T08:42:14.811Z,-0.8
2023-01-23T08:44:15.815Z,-0.8
2023-01-23T08:46:15.121Z,-0.8
2023-01-23T08:48:17.690Z,-0.6
2023-01-23T08:50:15.897Z,-0.7
2023-01-23T08:52:15.514Z,-0.7
2023-01-23T08:56:18.477Z,-0.7
2023-01-23T08:58:15.171Z,-0.7
2023-01-23T09:00:14.869Z,-0.7
2023-01-23T09:02:15.242Z,-0.8
2023-01-23T09:04:16.172Z,-0.7
2023-01-23T09:06:16.309Z,-0.7
2023-01-23T09:08:17.675Z,-0.7
2023-01-23T09:10:15.026Z,-0.7
2023-01-23T09:12:15.273Z,-0.6
2023-01-23T09:14:16.185Z,-0.5
2023-01-23T09:16:15.153Z,-0.5
2023-01-23T09:18:21.235Z,-0.4
2023-01-23T09:22:15.074Z,-0.3
2023-01-23T09:24:18.103Z,-0.3
2023-01-23T09:26:20.706Z,-0.4
2023-01-23T09:32:15.116Z,-0.3
2023-01-23T09:34:17.152Z,-0.5
2023-01-23T09:36:15.672Z,-0.2
2023-01-23T09:38:15.086Z,-0.2
2023-01-23T09:40:22.887Z,-0.2
2023-01-23T09:42:14.872Z,-0.1
2023-01-23T09:44:18.529Z,-0.2
2023-01-23T09:48:17.652Z,-0.1
2023-01-23T09:50:18.313Z,0
2023-01-23T09:52:16.518Z,-0.2
2023-01-23T09:54:16.158Z,-0.1
2023-01-23T09:56:15.072Z,-0.1
2023-01-23T09:58:15.580Z,-0.1
2023-01-23T10:00:14.924Z,-0.2
2023-01-23T10:04:17.665Z,0.1
2023-01-23T10:06:14.818Z,0.1
2023-01-23T10:08:15.067Z,0.1
2023-01-23T10:10:15.223Z,-0.1
2023-01-23T10:12:14.884Z,0.1
2023-01-23T10:18:14.827Z,0.3
2023-01-23T10:20:20.989Z,0.1
2023-01-23T10:22:22.923Z,0.2
2023-01-23T10:24:17.663Z,0.5
2023-01-23T10:26:15.180Z,0.8
2023-01-23T10:28:15.577Z,0.6
2023-01-23T10:30:14.855Z,0.5
2023-01-23T10:32:15.187Z,0.4
2023-01-23T10:34:17.955Z,0.4
2023-01-23T10:36:17.564Z,0.3
2023-01-23T10:38:15.803Z,0.3
2023-01-23T10:40:16.205Z,0.1
2023-01-23T10:42:18.109Z,0.4
2023-01-23T10:44:21.230Z,0.4
2023-01-23T10:46:17.737Z,0.4
2023-01-23T10:48:18.063Z,0.6
2023-01-23T10:50:15.063Z,0.6
2023-01-23T10:52:15.058Z,0.5
2023-01-23T10:54:29.846Z,0.4
2023-01-23T10:56:17.705Z,0.7
2023-01-23T10:58:18.130Z,0.9
2023-01-23T11:00:14.859Z,1.3
2023-01-23T11:02:18.251Z,1.4
2023-01-23T11:04:21.038Z,1.4
2023-01-23T11:06:18.077Z,1.5
2023-01-23T11:08:15.183Z,1.4
2023-01-23T11:10:18.101Z,1.3
2023-01-23T11:12:16.125Z,1.4
2023-01-23T11:16:18.129Z,1
2023-01-23T11:18:14.885Z,0.8
2023-01-23T11:20:15.217Z,0.7
2023-01-23T11:22:15.118Z,1
2023-01-23T11:24:14.918Z,0.9
2023-01-23T11:26:15.222Z,1.3
2023-01-23T11:30:17.691Z,1.2
2023-01-23T11:32:16.031Z,1.3
2023-01-23T11:34:17.714Z,1.4
2023-01-23T11:36:14.865Z,1.2
2023-01-23T11:38:30.150Z,1.3
2023-01-23T11:40:17.893Z,1.4
2023-01-23T11:42:14.871Z,1.4
2023-01-23T11:44:18.347Z,1.4
2023-01-23T11:46:15.168Z,1.3
2023-01-23T11:50:21.287Z,1.1
2023-01-23T11:52:15.058Z,1.3
2023-01-23T11:54:15.369Z,1.4
2023-01-23T12:02:21.329Z,1.1
2023-01-23T12:04:15.862Z,1.3
2023-01-23T12:06:20.142Z,1.7
2023-01-23T12:08:15.612Z,1.9
2023-01-23T12:12:15.321Z,2.5
2023-01-23T12:14:15.072Z,2.7
2023-01-23T12:16:15.151Z,2.7
2023-01-23T12:20:15.571Z,2.3
2023-01-23T12:22:17.755Z,2
2023-01-23T12:24:22.534Z,2
2023-01-23T12:26:15.151Z,1.7
2023-01-23T12:28:16.751Z,2
2023-01-23T12:30:14.943Z,2.1
2023-01-23T12:32:17.778Z,2.5
2023-01-23T12:34:15.076Z,2.3
2023-01-23T12:36:14.919Z,2.4
2023-01-23T12:38:15.949Z,2.5
2023-01-23T12:40:15.523Z,2.5
2023-01-23T12:42:17.994Z,2.5
2023-01-23T12:46:18.017Z,2.6
2023-01-23T12:48:17.989Z,2.6
2023-01-23T12:50:15.115Z,2.9
2023-01-23T12:52:15.059Z,2.9
2023-01-23T12:54:14.958Z,2.9
2023-01-23T12:56:15.181Z,2.9
2023-01-23T12:58:17.404Z,2.8
2023-01-23T13:00:14.946Z,2.3
2023-01-23T13:02:18.229Z,2.3
2023-01-23T13:04:15.058Z,2.5
2023-01-23T13:06:14.862Z,2.4
2023-01-23T13:08:15.151Z,2.5
2023-01-23T13:10:16.237Z,2.2
2023-01-23T13:12:19.027Z,2.2
2023-01-23T13:14:15.519Z,2.2
2023-01-23T13:16:21.345Z,2.3
2023-01-23T13:20:18.126Z,2.4
2023-01-23T13:22:19.078Z,2.5
2023-01-23T13:24:15.643Z,2.4
2023-01-23T13:26:15.149Z,2.4
2023-01-23T13:28:15.266Z,2.3
2023-01-23T13:30:16.198Z,2.1
2023-01-23T13:32:15.690Z,2.2
2023-01-23T13:34:16.439Z,2.4
2023-01-23T13:36:14.858Z,2.3
2023-01-23T13:38:17.912Z,2.2
2023-01-23T13:40:15.053Z,2.2
2023-01-23T13:42:15.359Z,2.2
2023-01-23T13:44:17.683Z,2.4
2023-01-23T13:46:15.123Z,2.7
2023-01-23T14:22:18.423Z,2
2023-01-23T14:24:18.082Z,2.1
2023-01-23T14:26:15.151Z,2
2023-01-23T14:28:15.176Z,1.9
2023-01-23T14:32:17.846Z,1.9
2023-01-23T14:34:17.725Z,1.9
2023-01-23T14:36:14.970Z,1.9
2023-01-23T14:38:21.002Z,1.7
2023-01-23T14:40:25.808Z,1.7
2023-01-23T14:42:23.295Z,1.7
2023-01-23T14:46:15.135Z,1.8
2023-01-23T14:48:21.610Z,1.8
2023-01-23T14:50:15.109Z,1.7
2023-01-23T14:52:18.062Z,1.7
2023-01-23T14:54:18.101Z,1.7
2023-01-23T14:56:16.578Z,1.6
2023-01-23T14:58:15.117Z,1.5
2023-01-23T15:00:14.992Z,1.5
2023-01-23T15:02:22.955Z,1.5
2023-01-23T15:04:17.674Z,1.4
2023-01-23T15:06:14.897Z,1.4
2023-01-23T15:08:15.131Z,1.4
2023-01-23T15:10:15.169Z,1.5
2023-01-23T15:12:14.871Z,1.5
2023-01-23T15:14:17.892Z,1.5
2023-01-23T15:16:15.103Z,1.5
2023-01-23T15:18:15.267Z,1.5
2023-01-23T15:20:15.153Z,1.4
2023-01-23T15:22:15.102Z,1.4
2023-01-23T15:24:14.913Z,1.4
2023-01-23T15:26:15.148Z,1.3
2023-01-23T15:28:15.208Z,1.3
2023-01-23T15:30:17.844Z,1.3
2023-01-23T15:32:15.923Z,1.3
2023-01-23T15:34:15.544Z,1.3
2023-01-23T15:36:15.323Z,1.3
2023-01-23T15:42:18.152Z,1.2
2023-01-23T15:46:17.764Z,1.2
2023-01-23T15:48:14.959Z,1.1
2023-01-23T15:50:17.768Z,1.1
2023-01-23T15:52:15.556Z,1.1
2023-01-23T15:54:14.901Z,1.1
2023-01-23T15:56:15.186Z,1.1
2023-01-23T15:58:15.714Z,1.1
2023-01-23T16:00:14.981Z,1.1
2023-01-23T16:02:30.414Z,1
2023-01-23T16:04:15.536Z,1
2023-01-23T16:08:18.127Z,1
2023-01-23T16:10:15.698Z,1
2023-01-23T16:12:16.250Z,1
2023-01-23T16:14:15.606Z,1
2023-01-23T16:16:15.135Z,1
2023-01-23T16:18:14.910Z,1
2023-01-23T16:20:22.872Z,0.9
2023-01-23T16:22:15.099Z,1
2023-01-23T16:24:14.928Z,1
2023-01-23T16:26:15.868Z,0.9
2023-01-23T16:28:18.077Z,0.9
2023-01-23T16:34:18.203Z,1
2023-01-23T16:36:18.170Z,0.9
2023-01-23T16:38:15.257Z,0.9
2023-01-23T16:40:17.736Z,0.9
2023-01-23T16:42:17.492Z,0.9
2023-01-23T16:44:15.258Z,0.9
2023-01-23T16:46:15.149Z,0.9
2023-01-23T16:48:21.763Z,0.9
2023-01-23T16:50:18.210Z,0.9
2023-01-23T16:52:19.730Z,0.9
2023-01-23T16:54:18.608Z,0.9
2023-01-23T16:56:15.110Z,0.8
2023-01-23T16:58:15.217Z,0.8
2023-01-23T17:00:20.699Z,0.8
2023-01-23T17:02:18.310Z,0.8
2023-01-23T17:04:18.026Z,0.9
2023-01-23T17:06:15.461Z,0.8
2023-01-23T17:10:18.001Z,0.8
2023-01-23T17:12:17.482Z,0.8
2023-01-23T17:16:26.696Z,0.8
2023-01-23T17:18:15.281Z,0.8
2023-01-23T17:20:15.205Z,0.8
2023-01-23T17:24:14.892Z,0.8
2023-01-23T17:26:15.578Z,0.8
2023-01-23T17:28:15.133Z,0.7
2023-01-23T17:30:14.908Z,0.7
2023-01-23T17:32:15.219Z,0.7
2023-01-23T17:34:21.204Z,0.7
2023-01-23T17:36:16.745Z,0.7
2023-01-23T17:38:15.168Z,0.8
2023-01-23T17:40:18.363Z,0.7
2023-01-23T17:42:17.488Z,0.7
2023-01-23T17:44:15.157Z,0.7
2023-01-23T17:46:15.197Z,0.7
2023-01-23T17:50:18.338Z,0.7
2023-01-23T17:52:15.605Z,0.7
2023-01-23T17:54:16.284Z,0.7
2023-01-23T17:56:17.987Z,0.7
2023-01-23T17:58:15.182Z,0.7
2023-01-23T18:00:21.398Z,0.7
2023-01-23T18:02:15.138Z,0.7
2023-01-23T18:04:18.132Z,0.7
2023-01-23T18:06:18.187Z,0.6
2023-01-23T18:08:15.155Z,0.7
2023-01-23T18:10:16.495Z,0.6
2023-01-23T18:12:15.650Z,0.6
2023-01-23T18:14:15.153Z,0.6
2023-01-23T18:16:18.037Z,0.6
2023-01-23T18:20:15.923Z,0.6
2023-01-23T18:22:16.253Z,0.6
2023-01-23T18:24:15.034Z,0.6
2023-01-23T18:26:15.220Z,0.5
2023-01-23T18:30:14.957Z,0.5
2023-01-23T18:36:29.932Z,0.6
2023-01-23T18:38:31.510Z,0.5
2023-01-23T18:40:31.181Z,0.5
2023-01-23T18:44:37.192Z,0.5
2023-01-23T18:46:31.710Z,0.5
2023-01-23T18:48:31.390Z,0.5
2023-01-23T18:50:32.747Z,0.5
2023-01-23T18:52:31.266Z,0.5
2023-01-23T18:54:35.463Z,0.5
2023-01-23T18:56:32.001Z,0.5
2023-01-23T18:58:32.744Z,0.5
2023-01-23T19:00:31.702Z,0.5
2023-01-23T19:02:31.163Z,0.5
2023-01-23T19:04:32.128Z,0.5
2023-01-23T19:06:38.545Z,0.5
2023-01-23T19:08:31.131Z,0.5
2023-01-23T19:10:37.325Z,0.5
2023-01-23T19:12:31.429Z,0.5
2023-01-23T19:14:32.294Z,0.5
2023-01-23T19:16:31.671Z,0.5
2023-01-23T19:18:39.981Z,0.4
2023-01-23T19:20:31.699Z,0.4
2023-01-23T19:22:31.678Z,0.5
2023-01-23T19:24:31.389Z,0.5
2023-01-23T19:26:31.458Z,0.4
2023-01-23T19:28:33.503Z,0.4
2023-01-23T19:30:35.104Z,0.4
2023-01-23T19:32:31.906Z,0.5
2023-01-23T19:34:30.614Z,0.5
2023-01-23T19:36:32.684Z,0.5
2023-01-23T19:38:31.316Z,0.4
2023-01-23T19:40:31.177Z,0.5
2023-01-23T19:42:38.706Z,0.5
2023-01-23T19:44:30.900Z,0.5
2023-01-23T19:48:34.000Z,0.5
2023-01-23T19:50:32.345Z,0.5
2023-01-23T19:54:32.723Z,0.4
2023-01-23T19:56:33.752Z,0.4
2023-01-23T19:58:32.263Z,0.4
2023-01-23T20:00:31.587Z,0.4
2023-01-23T20:02:30.839Z,0.5
2023-01-23T20:04:31.510Z,0.4
2023-01-23T20:06:34.446Z,0.4
2023-01-23T20:08:30.214Z,0.5
2023-01-23T20:10:32.083Z,0.4
2023-01-23T20:12:31.127Z,0.4
2023-01-23T20:14:38.140Z,0.4
2023-01-23T20:16:31.232Z,0.4
2023-01-23T20:18:31.260Z,0.4
2023-01-23T20:20:31.760Z,0.4
2023-01-23T20:22:36.011Z,0.4
2023-01-23T20:24:32.750Z,0.5
2023-01-23T20:28:31.715Z,0.4
2023-01-23T20:30:32.986Z,0.4
2023-01-23T20:32:30.956Z,0.4
2023-01-23T20:34:32.253Z,0.4
2023-01-23T20:36:34.386Z,0.4
2023-01-23T20:38:34.086Z,0.4
2023-01-23T20:40:32.915Z,0.4
2023-01-23T20:42:31.672Z,0.4
2023-01-23T20:44:31.189Z,0.4
2023-01-23T20:46:31.243Z,0.4
2023-01-23T20:48:32.699Z,0.4
2023-01-23T20:50:38.903Z,0.4
2023-01-23T20:52:31.406Z,0.4
2023-01-23T20:54:30.598Z,0.4
2023-01-23T20:56:34.528Z,0.4
2023-01-23T20:58:32.000Z,0.4
2023-01-23T21:00:31.535Z,0.4
2023-01-23T21:02:31.879Z,0.4
2023-01-23T21:04:31.671Z,0.4
2023-01-23T21:06:32.225Z,0.4
2023-01-23T21:08:31.433Z,0.4
2023-01-23T21:10:31.909Z,0.3
2023-01-23T21:12:35.126Z,0.4
2023-01-23T21:14:31.196Z,0.4
2023-01-23T21:16:30.605Z,0.4
2023-01-23T21:18:31.239Z,0.4
2023-01-23T21:20:31.246Z,0.4
2023-01-23T21:22:31.709Z,0.4
2023-01-23T21:26:31.692Z,0.4
2023-01-23T21:28:31.248Z,0.4
2023-01-23T21:30:31.418Z,0.3
2023-01-23T21:32:31.923Z,0.3
2023-01-23T21:34:31.227Z,0.4
2023-01-23T21:38:31.128Z,0.3
2023-01-23T21:40:31.238Z,0.3
2023-01-23T21:42:31.430Z,0.4
2023-01-23T21:44:31.695Z,0.4
2023-01-23T21:48:31.440Z,0.3
2023-01-23T21:50:35.433Z,0.4
2023-01-23T21:52:31.158Z,0.3
2023-01-23T21:54:31.159Z,0.3
2023-01-23T21:56:31.233Z,0.3
2023-01-23T21:58:31.600Z,0.3
2023-01-23T22:00:34.664Z,0.3
2023-01-23T22:02:31.302Z,0.3
2023-01-23T22:04:31.840Z,0.3
2023-01-23T22:06:32.576Z,0.3
2023-01-23T22:08:31.263Z,0.3
2023-01-23T22:10:32.069Z,0.3
2023-01-23T22:12:30.672Z,0.4
2023-01-23T22:14:32.771Z,0.3
2023-01-23T22:16:47.284Z,0.3
2023-01-23T22:18:31.729Z,0.3
2023-01-23T22:20:31.676Z,0.4
2023-01-23T22:22:31.190Z,0.3
2023-01-23T22:24:31.171Z,0.3
2023-01-23T22:26:31.275Z,0.4
2023-01-23T22:28:32.745Z,0.4
2023-01-23T22:30:36.969Z,0.3
2023-01-23T22:32:31.745Z,0.3
2023-01-23T22:34:31.239Z,0.4
2023-01-23T22:36:30.581Z,0.3
2023-01-23T22:38:34.074Z,0.4
2023-01-23T22:40:38.925Z,0.3
2023-01-23T22:42:31.159Z,0.4
2023-01-23T22:44:31.979Z,0.3
2023-01-23T22:46:31.341Z,0.3
2023-01-23T22:48:34.066Z,0.3
2023-01-23T22:50:30.795Z,0.3
2023-01-23T22:52:31.304Z,0.3
2023-01-23T22:54:31.273Z,0.3
2023-01-23T22:56:30.201Z,0.3
2023-01-23T22:58:31.286Z,0.3
2023-01-23T23:00:31.245Z,0.3
2023-01-23T23:02:31.408Z,0.3
2023-01-23T23:04:31.299Z,0.3
2023-01-23T23:06:31.272Z,0.3
2023-01-23T23:08:30.214Z,0.3
2023-01-23T23:10:35.245Z,0.3
2023-01-23T23:12:31.533Z,0.3
2023-01-23T23:14:31.327Z,0.3
2023-01-23T23:16:31.757Z,0.3
2023-01-23T23:18:30.070Z,0.3
2023-01-23T23:20:31.305Z,0.3
2023-01-23T23:22:31.558Z,0.3
2023-01-23T23:24:31.222Z,0.4
2023-01-23T23:26:30.784Z,0.3
2023-01-23T23:30:31.477Z,0.4
2023-01-23T23:32:31.564Z,0.3
2023-01-23T23:34:31.215Z,0.3
2023-01-23T23:36:31.288Z,0.4
2023-01-23T23:38:31.485Z,0.4
2023-01-23T23:40:30.170Z,0.4
2023-01-23T23:42:31.288Z,0.3
2023-01-23T23:44:36.411Z,0.3
2023-01-23T23:46:31.317Z,0.3
2023-01-23T23:48:31.457Z,0.3
2023-01-23T23:50:30.167Z,0.3
2023-01-23T23:54:31.303Z,0.4
2023-01-23T23:56:31.183Z,0.3
2023-01-23T23:58:31.290Z,0.3
